Time;durP1;ratioP1;P1;durP2;ratioP2;P2;SDS_P1;SDS_P2;PMS_P1;PMS_P2;Temp;Humidity;BMP_temperature;BMP_pressure;BME280_temperature;BME280_humidity;BME280_pressure;Samples;Min_cycle;Max_cycle;Signal;HPM_P1;HPM_P2
2023/03/18 00:01:23;;;;;;;31.38;29.55;;;;;;;17.90;54.83;100666.84;4994267;28;20037;-67
2023/03/18 00:03:48;;;;;;;34.28;32.08;;;;;;;17.89;54.89;100664.41;5029062;28;20045;-67
2023/03/18 00:06:17;;;;;;;35.28;32.95;;;;;;;17.88;54.80;100660.88;5019316;28;20091;-68
2023/03/18 00:08:44;;;;;;;;;;;;;;;17.83;55.03;100668.31;5012327;28;20136;-67
2023/03/18 00:11:11;;;;;;;30.25;28.30;;;;;;;17.83;54.64;100666.41;5011392;28;19926;-67
2023/03/18 00:13:38;;;;;;;31.85;29.95;;;;;;;17.80;54.79;100669.72;5022995;28;20033;-67
2023/03/18 00:16:05;;;;;;;33.80;31.60;;;;;;;17.81;54.59;100673.25;5024432;28;20048;-68
2023/03/18 00:18:31;;;;;;;31.98;30.23;;;;;;;17.80;54.53;100666.97;5026683;28;20033;-67
2023/03/18 00:20:57;;;;;;;33.47;31.48;;;;;;;17.80;54.61;100669.72;5021770;28;20038;-67
2023/03/18 00:23:23;;;;;;;33.55;31.40;;;;;;;17.78;54.58;100660.97;5016059;28;20450;-67
2023/03/18 00:25:51;;;;;;;32.47;30.48;;;;;;;17.79;54.61;100665.34;5011673;28;20121;-69
2023/03/18 00:28:17;;;;;;;33.45;31.17;;;;;;;17.78;55.02;100668.34;5021489;28;20042;-67
2023/03/18 00:30:42;;;;;;;32.78;30.50;;;;;;;17.77;55.00;100674.94;4995803;28;20030;-67
2023/03/18 00:33:09;;;;;;;34.22;32.00;;;;;;;17.76;54.59;100673.28;5018427;28;20048;-67
2023/03/18 00:35:36;;;;;;;31.25;29.35;;;;;;;17.76;54.56;100678.75;5021423;28;20105;-67
2023/03/18 00:38:02;;;;;;;33.05;31.02;;;;;;;17.74;54.66;100685.34;5021025;28;20064;-67
2023/03/18 00:40:41;;;;;;;34.38;32.25;;;;;;;17.73;54.57;100680.97;5015355;28;20034;-67
2023/03/18 00:43:08;;;;;;;34.78;32.55;;;;;;;17.72;54.55;100684.00;5015299;28;20042;-68
2023/03/18 00:45:39;;;;;;;32.50;30.50;;;;;;;17.71;54.63;100688.66;5026189;28;20426;-67
2023/03/18 00:48:06;;;;;;;33.15;31.15;;;;;;;17.70;54.87;100687.00;5017071;28;20021;-68
2023/03/18 00:50:32;;;;;;;33.78;31.23;;;;;;;17.70;55.02;100678.00;5014855;28;20421;-67
2023/03/18 00:52:58;;;;;;;33.88;31.73;;;;;;;17.68;54.91;100680.22;5014715;28;20034;-67
2023/03/18 00:55:24;;;;;;;33.05;31.10;;;;;;;17.68;54.84;100691.16;5015427;28;20065;-68
2023/03/18 00:57:51;;;;;;;33.47;31.30;;;;;;;17.66;54.75;100680.50;5014985;28;20038;-67
2023/03/18 01:00:17;;;;;;;32.97;30.92;;;;;;;17.66;54.46;100687.88;5023260;28;20034;-67
2023/03/18 01:02:43;;;;;;;32.72;30.60;;;;;;;17.65;54.90;100686.28;5007573;28;20064;-67
2023/03/18 01:05:11;;;;;;;36.00;33.65;;;;;;;17.64;54.87;100682.72;5033163;28;20041;-67
2023/03/18 01:07:37;;;;;;;32.13;30.05;;;;;;;17.63;54.59;100678.34;5033858;28;20033;-67
2023/03/18 01:10:04;;;;;;;33.10;31.20;;;;;;;17.63;55.03;100688.47;5010474;28;20046;-68
2023/03/18 01:12:29;;;;;;;32.80;30.75;;;;;;;17.61;55.07;100680.56;5014687;28;20040;-67
2023/03/18 01:14:54;;;;;;;34.58;32.30;;;;;;;17.59;55.09;100674.59;5020114;28;20037;-68
2023/03/18 01:17:20;;;;;;;35.08;32.88;;;;;;;17.59;54.54;100677.34;5020164;28;20045;-67
2023/03/18 01:19:47;;;;;;;32.95;31.05;;;;;;;17.58;54.50;100672.94;5015868;28;20069;-67
2023/03/18 01:22:13;;;;;;;32.97;30.77;;;;;;;17.57;54.54;100681.47;5014035;28;20029;-67
2023/03/18 01:24:39;;;;;;;33.15;31.02;;;;;;;17.55;54.85;100676.28;5014679;28;20057;-68
2023/03/18 01:27:05;;;;;;;34.45;32.22;;;;;;;17.55;55.01;100675.47;5024791;28;20724;-67
2023/03/18 01:29:30;;;;;;;31.67;29.75;;;;;;;17.53;54.73;100676.56;5014649;28;20065;-68
2023/03/18 01:31:56;;;;;;;33.47;31.30;;;;;;;17.53;54.83;100667.56;5018928;28;20136;-68
2023/03/18 01:34:22;;;;;;;33.95;31.75;;;;;;;17.51;54.42;100667.84;5014309;28;20049;-66
2023/03/18 01:36:48;;;;;;;31.85;29.95;;;;;;;17.50;54.84;100668.94;5018048;28;20038;-66
2023/03/18 01:39:14;;;;;;;33.80;31.70;;;;;;;17.51;54.74;100672.47;5013953;28;20033;-66
2023/03/18 01:41:40;;;;;;;34.72;32.42;;;;;;;17.49;55.03;100672.00;5018373;28;20046;-66
2023/03/18 01:44:12;;;;;;;32.70;30.60;;;;;;;17.47;54.72;100666.81;5014714;28;20520;-66
2023/03/18 01:46:39;;;;;;;35.83;33.08;;;;;;;17.48;54.73;100670.34;5032880;28;20045;-66
2023/03/18 01:49:22;;;;;;;35.15;32.55;;;;;;;17.45;54.75;100673.66;5020316;28;20050;-66
2023/03/18 01:51:56;;;;;;;31.00;29.00;;;;;;;17.43;54.58;100673.94;5016408;28;20463;-67
2023/03/18 01:54:24;;;;;;;31.77;29.63;;;;;;;17.43;54.84;100678.59;5013515;28;20034;-66
2023/03/18 01:56:50;;;;;;;30.50;28.50;;;;;;;17.41;54.62;100681.63;5021311;28;20021;-66
2023/03/18 01:59:18;;;;;;;34.10;31.70;;;;;;;17.41;54.62;100686.25;5014495;28;20040;-66
2023/03/18 02:02:03;;;;;;;34.15;31.73;;;;;;;17.38;54.77;100676.72;5021047;28;20030;-67
2023/03/18 02:04:38;;;;;;;30.73;28.88;;;;;;;17.38;55.18;100689.56;5016200;28;20065;-67
2023/03/18 02:07:06;;;;;;;33.58;31.30;;;;;;;17.37;55.01;100679.75;5019819;28;20033;-67
2023/03/18 02:09:32;;;;;;;30.73;28.77;;;;;;;17.35;55.10;100681.97;5016432;28;20033;-66
2023/03/18 02:12:00;;;;;;;32.35;30.35;;;;;;;17.36;54.82;100686.31;5016742;28;20025;-67
2023/03/18 02:14:26;;;;;;;32.17;30.27;;;;;;;17.35;54.71;100682.78;5032712;28;20481;-69
2023/03/18 02:17:00;;;;;;;32.33;30.13;;;;;;;17.34;55.01;100686.63;5015087;28;20033;-67
2023/03/18 02:19:53;;;;;;;32.22;30.27;;;;;;;17.33;54.57;100678.72;5016644;28;20037;-66
2023/03/18 02:22:30;;;;;;;32.30;30.30;;;;;;;17.30;54.85;100682.81;5030190;28;20087;-67
2023/03/18 02:25:21;;;;;;;32.00;30.02;;;;;;;17.28;54.77;100685.84;5019547;28;20107;-66
2023/03/18 02:27:55;;;;;;;31.20;29.20;;;;;;;17.26;54.60;100689.97;5016885;28;20037;-66
2023/03/18 02:30:26;;;;;;;33.75;31.30;;;;;;;17.26;54.55;100696.25;5023715;28;20445;-66
2023/03/18 02:32:53;;;;;;;32.65;30.63;;;;;;;17.26;54.66;100701.72;5013543;28;20030;-67
2023/03/18 02:35:19;;;;;;;32.35;30.40;;;;;;;17.26;55.09;100695.41;5002899;28;20033;-66
2023/03/18 02:37:45;;;;;;;32.30;30.30;;;;;;;17.25;54.52;100699.25;5032062;28;20040;-67
2023/03/18 02:40:24;;;;;;;32.38;30.40;;;;;;;17.22;54.66;100700.66;5024755;28;20037;-67
2023/03/18 02:42:51;;;;;;;30.80;28.90;;;;;;;17.23;54.80;100704.19;5013054;28;20033;-67
2023/03/18 02:45:44;;;;;;;30.55;28.33;;;;;;;17.20;54.83;100704.78;5012556;28;20107;-66
2023/03/18 02:48:13;;;;;;;33.35;31.25;;;;;;;17.22;55.00;100706.13;5014368;28;20046;-66
2023/03/18 02:50:38;;;;;;;31.52;29.48;;;;;;;17.20;55.08;100707.50;5031222;28;20033;-66
2023/03/18 02:53:04;;;;;;;31.23;29.25;;;;;;;17.19;54.97;100703.16;5023775;28;20103;-67
2023/03/18 02:55:30;;;;;;;29.90;28.17;;;;;;;17.19;54.67;100709.44;5013290;28;20034;-67
2023/03/18 02:57:56;;;;;;;31.05;29.20;;;;;;;17.19;54.92;100714.06;5012160;28;20468;-66
2023/03/18 03:00:22;;;;;;;32.40;30.20;;;;;;;17.18;54.85;100718.69;5026600;28;20037;-66
2023/03/18 03:02:47;;;;;;;31.13;29.13;;;;;;;17.17;54.75;100719.81;5011409;28;20489;-66
2023/03/18 03:05:12;;;;;;;32.72;30.50;;;;;;;17.16;55.24;100723.66;5006471;28;20029;-68
2023/03/18 03:07:38;;;;;;;31.67;29.73;;;;;;;17.16;54.66;100720.09;5028185;28;20037;-67
2023/03/18 03:10:05;;;;;;;30.50;28.63;;;;;;;17.15;54.96;100721.19;5021899;28;20036;-67
2023/03/18 03:12:31;;;;;;;31.35;29.40;;;;;;;17.14;54.68;100734.03;5011997;28;20612;-67
2023/03/18 03:14:56;;;;;;;30.80;28.65;;;;;;;17.14;55.08;100738.69;4995008;28;20113;-67
2023/03/18 03:17:21;;;;;;;33.33;30.83;;;;;;;17.12;55.10;100736.22;5014159;28;20506;-67
2023/03/18 03:19:47;;;;;;;32.25;30.23;;;;;;;17.12;54.99;100732.69;5019100;28;20044;-66
2023/03/18 03:22:12;;;;;;;32.13;29.88;;;;;;;17.11;54.65;100736.50;4999105;28;20037;-67
2023/03/18 03:24:38;;;;;;;30.23;28.33;;;;;;;17.10;55.00;100735.69;5012096;28;20046;-66
2023/03/18 03:27:04;;;;;;;31.23;29.08;;;;;;;17.11;54.89;100739.25;4994865;28;20084;-66
2023/03/18 03:29:30;;;;;;;30.13;28.33;;;;;;;17.09;55.03;100739.53;5005264;28;20173;-66
2023/03/18 03:31:55;;;;;;;31.45;29.48;;;;;;;17.07;55.02;100739.81;5023693;28;20120;-66
2023/03/18 03:34:21;;;;;;;33.60;31.38;;;;;;;17.07;54.98;100731.63;5024960;28;20044;-66
2023/03/18 03:36:46;;;;;;;31.40;29.50;;;;;;;17.06;55.01;100740.13;5004151;28;20112;-66
2023/03/18 03:39:11;;;;;;;33.30;31.05;;;;;;;17.05;55.04;100744.75;5026933;28;20531;-66
2023/03/18 03:41:37;;;;;;;31.73;29.77;;;;;;;17.04;54.87;100740.41;5018747;28;20070;-66
2023/03/18 03:44:03;;;;;;;29.55;27.48;;;;;;;17.04;54.85;100728.66;5023790;28;20482;-66
2023/03/18 03:46:28;;;;;;;30.35;28.45;;;;;;;17.02;54.68;100734.41;5011491;28;20044;-66
2023/03/18 03:48:53;;;;;;;31.73;29.73;;;;;;;17.01;54.68;100730.06;4994795;28;20050;-66
2023/03/18 03:51:19;;;;;;;31.77;29.73;;;;;;;17.01;55.01;100740.13;5028890;28;20068;-66
2023/03/18 03:53:45;;;;;;;31.95;29.77;;;;;;;17.01;54.98;100740.13;5011852;28;20145;-66
2023/03/18 03:56:10;;;;;;;32.30;30.10;;;;;;;16.99;55.13;100734.16;5011590;28;20049;-67
2023/03/18 03:58:36;;;;;;;31.30;29.13;;;;;;;16.99;55.19;100736.91;5012215;28;20038;-66
2023/03/18 04:01:01;;;;;;;31.98;29.67;;;;;;;16.97;55.27;100739.91;5024142;28;20030;-66
2023/03/18 04:03:27;;;;;;;32.97;30.60;;;;;;;16.98;55.33;100737.97;5011835;28;20173;-66
2023/03/18 04:05:53;;;;;;;29.25;27.45;;;;;;;16.96;54.80;100740.19;4998219;28;20034;-66
2023/03/18 04:08:19;;;;;;;33.92;31.70;;;;;;;16.95;55.08;100744.81;5015337;28;20038;-66
2023/03/18 04:10:44;;;;;;;30.40;28.52;;;;;;;16.96;54.90;100748.38;5018571;28;20030;-66
2023/03/18 04:13:10;;;;;;;28.65;26.95;;;;;;;16.93;54.95;100749.75;5021848;28;20065;-66
2023/03/18 04:15:36;;;;;;;34.33;30.95;;;;;;;16.94;54.99;100745.13;5015805;28;20033;-67
2023/03/18 04:18:05;;;;;;;32.10;30.00;;;;;;;16.92;54.91;100748.13;5013237;28;20052;-66
2023/03/18 04:20:35;;;;;;;32.35;30.02;;;;;;;16.92;54.79;100747.31;5033731;28;20045;-66
2023/03/18 04:23:01;;;;;;;32.90;30.40;;;;;;;16.91;55.04;100754.69;5034809;28;20065;-66
2023/03/18 04:25:27;;;;;;;34.85;32.20;;;;;;;16.90;54.93;100757.69;5021127;28;20127;-66
2023/03/18 04:27:52;;;;;;;29.92;27.98;;;;;;;16.90;54.79;100768.63;5015561;28;20034;-66
2023/03/18 04:30:19;;;;;;;31.80;29.65;;;;;;;16.88;54.89;100768.88;5015303;28;20385;-66
2023/03/18 04:32:45;;;;;;;29.23;27.15;;;;;;;16.86;55.22;100771.09;5023729;28;20021;-66
2023/03/18 04:35:11;;;;;;;31.52;29.42;;;;;;;16.87;55.04;100791.81;4998097;28;20041;-66
2023/03/18 04:37:37;;;;;;;30.80;28.88;;;;;;;16.86;55.01;100784.75;5015167;28;20041;-67
2023/03/18 04:40:06;;;;;;;28.58;26.88;;;;;;;16.84;55.36;100768.66;5015271;28;20042;-66
2023/03/18 04:42:32;;;;;;;30.58;28.70;;;;;;;16.84;54.90;100781.47;5021244;28;20033;-66
2023/03/18 04:44:57;;;;;;;30.98;28.85;;;;;;;16.83;55.37;100786.13;5016970;28;20064;-66
2023/03/18 04:47:23;;;;;;;30.67;28.52;;;;;;;16.82;55.05;100784.47;5034272;28;20111;-66
2023/03/18 04:49:48;;;;;;;32.72;30.60;;;;;;;16.82;54.98;100778.22;5033933;28;20156;-66
2023/03/18 04:52:15;;;;;;;31.58;29.38;;;;;;;16.81;54.89;100782.88;5032956;28;20446;-66
2023/03/18 04:54:41;;;;;;;30.50;28.50;;;;;;;16.80;54.97;100778.50;5029244;28;20043;-66
2023/03/18 04:57:07;;;;;;;29.15;27.20;;;;;;;16.78;55.28;100780.72;5014993;28;20474;-66
2023/03/18 04:59:32;;;;;;;32.05;29.92;;;;;;;16.78;55.23;100788.91;5014286;28;20100;-66
2023/03/18 05:01:58;;;;;;;31.60;29.58;;;;;;;16.77;55.02;100791.88;5015132;28;20037;-67
2023/03/18 05:04:24;;;;;;;37.03;33.80;;;;;;;16.78;55.04;100793.50;5027254;28;20080;-66
2023/03/18 05:06:53;;;;;;;31.85;29.85;;;;;;;16.77;55.45;100795.41;5014588;28;20056;-67
2023/03/18 05:09:18;;;;;;;30.75;28.58;;;;;;;16.75;55.11;100783.94;5014731;28;20454;-66
2023/03/18 05:11:44;;;;;;;32.03;29.60;;;;;;;16.74;55.17;100785.06;5033682;28;20035;-66
2023/03/18 05:14:09;;;;;;;31.27;29.27;;;;;;;16.75;55.24;100788.59;5032321;28;20354;-66
2023/03/18 05:16:35;;;;;;;32.28;29.58;;;;;;;16.73;55.00;100786.16;5028240;28;20482;-65
2023/03/18 05:19:01;;;;;;;30.92;28.73;;;;;;;16.72;54.99;100781.78;5014638;28;20121;-66
2023/03/18 05:21:26;;;;;;;35.55;32.88;;;;;;;16.72;55.32;100787.25;5014259;28;20033;-66
2023/03/18 05:23:52;;;;;;;30.65;28.50;;;;;;;16.71;54.66;100782.91;5003594;28;20033;-66
2023/03/18 05:26:17;;;;;;;31.67;29.42;;;;;;;16.71;55.09;100782.09;5017901;28;20141;-66
2023/03/18 05:28:43;;;;;;;32.95;30.50;;;;;;;16.71;55.35;100776.66;5014151;28;20040;-66
2023/03/18 05:31:08;;;;;;;31.73;29.17;;;;;;;16.70;55.19;100775.81;5014518;28;20034;-66
2023/03/18 05:33:34;;;;;;;31.38;29.17;;;;;;;16.69;55.00;100779.63;5013785;28;20126;-68
2023/03/18 05:36:00;;;;;;;31.02;28.90;;;;;;;16.69;55.02;100792.47;5025148;28;20037;-66
2023/03/18 05:38:26;;;;;;;33.75;31.33;;;;;;;16.68;55.14;100788.91;5013867;28;20053;-66
2023/03/18 05:40:52;;;;;;;32.08;29.48;;;;;;;16.66;55.08;100786.47;5013790;28;20061;-66
2023/03/18 05:43:17;;;;;;;29.45;27.55;;;;;;;16.66;54.84;100794.66;5007255;28;20507;-66
2023/03/18 05:45:43;;;;;;;32.67;30.20;;;;;;;16.66;55.21;100799.31;5024005;28;20117;-67
2023/03/18 05:48:09;;;;;;;30.90;28.75;;;;;;;16.65;55.18;100800.38;5013865;28;20165;-66
2023/03/18 05:50:40;;;;;;;31.60;29.48;;;;;;;16.64;55.28;100796.84;5013968;28;20045;-68
2023/03/18 05:53:07;;;;;;;32.58;30.25;;;;;;;16.64;55.38;100813.22;5014073;28;20026;-67
2023/03/18 05:55:33;;;;;;;32.85;30.73;;;;;;;16.63;54.89;100808.88;5014421;28;20461;-67
2023/03/18 05:57:59;;;;;;;30.77;28.55;;;;;;;16.62;55.36;100818.13;5013181;28;20060;-66
2023/03/18 06:00:27;;;;;;;32.70;30.55;;;;;;;16.62;55.36;100822.78;5032920;28;20037;-67
2023/03/18 06:02:54;;;;;;;31.73;29.58;;;;;;;16.61;55.19;100819.22;5032974;28;20416;-66
2023/03/18 06:05:21;;;;;;;31.65;29.55;;;;;;;16.61;55.32;100816.50;5032958;28;20057;-66
2023/03/18 06:07:47;;;;;;;32.15;29.85;;;;;;;16.59;55.18;100818.69;5014178;28;20397;-66
2023/03/18 06:10:13;;;;;;;31.25;29.23;;;;;;;16.59;55.38;100810.50;5032709;28;20421;-66
2023/03/18 06:12:40;;;;;;;31.95;29.58;;;;;;;16.57;55.12;100818.16;5030160;28;20034;-66
2023/03/18 06:15:07;;;;;;;29.58;27.75;;;;;;;16.57;55.04;100823.59;5015572;28;20069;-66
2023/03/18 06:17:33;;;;;;;33.38;30.83;;;;;;;16.56;55.06;100827.44;5026175;28;20132;-66
2023/03/18 06:19:59;;;;;;;31.42;29.23;;;;;;;16.55;55.29;100822.25;5013732;28;20378;-66
2023/03/18 06:22:25;;;;;;;31.88;29.48;;;;;;;16.54;54.93;100823.38;5021482;28;20034;-66
2023/03/18 06:24:51;;;;;;;32.35;30.13;;;;;;;16.53;55.23;100822.56;5024721;28;20038;-67
2023/03/18 06:27:16;;;;;;;29.65;27.52;;;;;;;16.53;55.13;100822.56;5025230;28;20041;-67
2023/03/18 06:29:42;;;;;;;32.50;30.30;;;;;;;16.53;55.40;100821.72;5019505;28;20042;-65
2023/03/18 06:32:08;;;;;;;30.55;28.65;;;;;;;16.51;54.87;100824.75;5014284;28;20042;-66
2023/03/18 06:34:35;;;;;;;31.92;29.75;;;;;;;16.51;55.03;100826.66;5031448;28;20061;-67
2023/03/18 06:37:01;;;;;;;31.20;29.00;;;;;;;16.49;55.18;100832.38;5031947;28;20112;-66
2023/03/18 06:39:29;;;;;;;32.10;29.60;;;;;;;16.49;55.29;100831.56;5021829;28;20041;-67
2023/03/18 06:41:55;;;;;;;29.58;27.20;;;;;;;16.48;55.06;100835.38;5013017;28;20053;-67
2023/03/18 06:44:22;;;;;;;32.80;30.55;;;;;;;16.48;55.46;100841.66;5027133;28;20073;-67
2023/03/18 06:46:47;;;;;;;31.27;28.83;;;;;;;16.47;55.08;100839.22;5016256;28;20049;-67
2023/03/18 06:49:13;;;;;;;32.25;30.15;;;;;;;16.46;55.35;100851.22;5014031;28;20057;-67
2023/03/18 06:51:39;;;;;;;30.77;28.83;;;;;;;16.45;55.28;100847.66;5013982;28;20179;-66
2023/03/18 06:54:05;;;;;;;32.05;29.95;;;;;;;16.44;54.94;100852.31;5031712;28;20124;-68
2023/03/18 06:56:32;;;;;;;32.08;29.58;;;;;;;16.42;54.98;100851.75;5014402;28;20034;-67
2023/03/18 06:58:58;;;;;;;30.77;28.77;;;;;;;16.42;55.31;100848.22;5031458;28;20454;-67
2023/03/18 07:01:24;;;;;;;31.42;29.25;;;;;;;16.41;55.02;100855.59;5015878;28;20065;-66
2023/03/18 07:03:50;;;;;;;31.10;28.90;;;;;;;16.41;54.93;100860.22;4979646;28;20033;-66
2023/03/18 07:06:17;;;;;;;32.00;29.63;;;;;;;16.40;55.08;100867.59;4994946;28;20052;-67
2023/03/18 07:08:43;;;;;;;32.20;29.77;;;;;;;16.39;55.18;100859.69;5020120;28;20139;-67
2023/03/18 07:11:12;;;;;;;32.72;30.48;;;;;;;16.38;55.37;100861.59;5012741;28;20040;-66
2023/03/18 07:13:37;;;;;;;33.20;30.77;;;;;;;16.37;55.02;100865.41;5012262;28;20394;-67
2023/03/18 07:16:03;;;;;;;31.13;28.85;;;;;;;16.36;55.10;100871.97;5024263;28;20172;-67
2023/03/18 07:18:29;;;;;;;28.60;26.83;;;;;;;16.35;54.94;100873.03;5017787;28;20041;-67
2023/03/18 07:20:55;;;;;;;30.25;28.13;;;;;;;16.34;55.05;100876.88;5016478;28;20034;-66
2023/03/18 07:23:20;;;;;;;29.15;27.25;;;;;;;16.33;55.52;100875.25;5012564;28;20452;-67
2023/03/18 07:25:46;;;;;;;30.17;28.20;;;;;;;16.33;55.47;100880.72;5031668;28;20041;-66
2023/03/18 07:28:12;;;;;;;27.48;25.95;;;;;;;16.31;55.30;100874.72;5016149;28;20437;-66
2023/03/18 07:30:37;;;;;;;28.95;27.00;;;;;;;16.30;55.17;100883.16;5031745;28;20053;-66
2023/03/18 07:33:03;;;;;;;30.17;28.20;;;;;;;16.29;55.05;100881.53;5014197;28;20113;-66
2023/03/18 07:35:29;;;;;;;31.80;29.58;;;;;;;16.29;55.39;100887.00;5006938;28;20393;-66
2023/03/18 07:37:55;;;;;;;28.65;26.92;;;;;;;16.28;54.91;100888.06;5019172;28;20034;-66
2023/03/18 07:40:21;;;;;;;29.38;27.15;;;;;;;16.27;55.06;100887.25;5020223;28;20030;-67
2023/03/18 07:42:47;;;;;;;32.40;29.73;;;;;;;16.26;55.40;100893.00;5011732;28;20042;-66
2023/03/18 07:45:12;;;;;;;29.33;27.08;;;;;;;16.26;55.56;100899.25;5003880;28;20392;-67
2023/03/18 07:47:37;;;;;;;28.90;26.88;;;;;;;16.26;55.18;100893.81;5012090;28;20080;-68
2023/03/18 07:50:05;;;;;;;30.83;28.83;;;;;;;16.26;55.06;100896.53;5030412;28;20053;-67
2023/03/18 07:52:30;;;;;;;29.83;27.83;;;;;;;16.26;55.24;100899.25;5017607;28;20046;-67
2023/03/18 07:54:56;;;;;;;30.80;28.30;;;;;;;16.26;55.45;100893.00;5022380;28;20034;-67
2023/03/18 07:57:22;;;;;;;29.05;27.15;;;;;;;16.23;55.26;100887.00;5023595;28;20038;-67
2023/03/18 07:59:48;;;;;;;33.65;30.92;;;;;;;16.23;55.42;100888.91;5014306;28;20509;-67
2023/03/18 08:02:14;;;;;;;29.65;27.60;;;;;;;16.23;55.57;100887.00;5017909;28;20034;-67
2023/03/18 08:04:41;;;;;;;31.45;29.15;;;;;;;16.23;55.27;100892.44;5011303;28;20088;-69
2023/03/18 08:07:07;;;;;;;29.13;27.20;;;;;;;16.24;55.20;100890.53;5012549;28;20029;-83
2023/03/18 08:09:33;;;;;;;30.42;28.20;;;;;;;16.23;55.42;100887.00;5011902;28;20100;-66
2023/03/18 08:11:59;;;;;;;29.13;27.08;;;;;;;16.23;55.07;100894.38;5023208;28;20084;-67
2023/03/18 08:14:24;;;;;;;28.60;26.55;;;;;;;16.23;55.27;100894.38;5011502;28;20066;-67
2023/03/18 08:16:50;;;;;;;31.90;29.55;;;;;;;16.24;55.47;100882.38;5011003;28;20042;-67
2023/03/18 08:19:15;;;;;;;30.55;28.25;;;;;;;16.26;55.22;100880.19;5017311;28;20488;-67
2023/03/18 08:21:42;;;;;;;30.05;27.75;;;;;;;16.25;55.29;100883.97;5021189;28;20038;-66
2023/03/18 08:24:08;;;;;;;29.05;26.95;;;;;;;16.24;55.36;100879.63;5011130;28;20394;-67
2023/03/18 08:26:34;;;;;;;29.75;27.75;;;;;;;16.26;55.32;100890.28;5011349;28;20510;-67
2023/03/18 08:29:00;;;;;;;30.25;27.85;;;;;;;16.26;55.07;100890.28;5022072;28;20120;-67
2023/03/18 08:31:25;;;;;;;28.98;27.08;;;;;;;16.26;55.21;100893.81;5024836;28;20092;-69
2023/03/18 08:33:53;;;;;;;30.80;28.63;;;;;;;16.26;54.92;100888.34;5028419;28;20037;-67
2023/03/18 08:36:19;;;;;;;31.38;29.27;;;;;;;16.26;55.29;100896.53;5022598;28;20042;-67
2023/03/18 08:38:44;;;;;;;31.08;28.88;;;;;;;16.27;55.06;100895.44;5017997;28;20452;-67
2023/03/18 08:41:10;;;;;;;27.13;25.42;;;;;;;16.28;55.47;100899.81;5030622;28;20025;-66
2023/03/18 08:43:35;;;;;;;30.17;28.20;;;;;;;16.29;55.30;100900.63;5012957;28;20084;-66
2023/03/18 08:46:01;;;;;;;31.75;29.15;;;;;;;16.31;55.37;100901.16;5012666;28;20059;-66
2023/03/18 08:48:27;;;;;;;32.20;29.80;;;;;;;16.31;55.17;100910.16;5028786;28;20058;-66
2023/03/18 08:50:52;;;;;;;31.58;29.15;;;;;;;16.34;55.47;100906.06;4996341;28;20049;-66
2023/03/18 08:53:18;;;;;;;30.17;28.23;;;;;;;16.33;55.31;100907.97;5014842;28;20037;-66
2023/03/18 08:55:43;;;;;;;33.38;30.30;;;;;;;16.36;55.17;100912.06;5019241;28;20049;-67
2023/03/18 08:58:09;;;;;;;31.13;28.48;;;;;;;16.37;55.29;100917.22;5014871;28;20038;-67
2023/03/18 09:00:38;;;;;;;30.75;28.45;;;;;;;16.38;55.23;100913.41;5026470;28;20044;-66
2023/03/18 09:03:04;;;;;;;30.20;27.83;;;;;;;16.38;55.19;100918.84;5015069;28;20033;-67
2023/03/18 09:05:31;;;;;;;28.65;26.55;;;;;;;16.39;55.28;100919.66;5014746;28;20034;-67
2023/03/18 09:07:57;;;;;;;30.92;28.92;;;;;;;16.40;55.44;100919.41;5023491;28;20044;-66
2023/03/18 09:10:24;;;;;;;29.52;27.52;;;;;;;16.41;55.08;100912.84;5024556;28;20049;-66
2023/03/18 09:12:49;;;;;;;30.00;27.67;;;;;;;16.43;55.18;100920.75;5019190;28;20453;-67
2023/03/18 09:15:16;;;;;;;29.20;27.25;;;;;;;16.42;55.42;100919.91;5014044;28;20049;-67
2023/03/18 09:17:42;;;;;;;30.55;28.42;;;;;;;16.45;55.27;100918.53;5023812;28;20076;-69
2023/03/18 09:20:10;;;;;;;31.40;29.15;;;;;;;16.47;55.31;100918.28;5015515;28;20029;-67
2023/03/18 09:22:37;;;;;;;28.80;26.55;;;;;;;16.49;55.59;100913.38;5017316;28;20423;-66
2023/03/18 09:25:03;;;;;;;28.88;26.95;;;;;;;16.50;55.43;100913.06;5013789;28;20045;-67
2023/03/18 09:27:28;;;;;;;29.38;27.50;;;;;;;16.51;55.30;100917.44;5022975;28;20037;-66
2023/03/18 09:29:55;;;;;;;29.48;27.45;;;;;;;16.54;55.19;100918.81;5017595;28;20030;-67
2023/03/18 09:32:21;;;;;;;29.88;27.85;;;;;;;16.56;55.45;100916.63;5023825;28;20200;-66
2023/03/18 09:34:46;;;;;;;29.90;27.48;;;;;;;16.58;55.14;100917.13;5019996;28;20124;-66
2023/03/18 09:37:13;;;;;;;29.40;27.48;;;;;;;16.58;55.72;100904.34;5025065;28;20021;-67
2023/03/18 09:39:40;;;;;;;29.13;27.10;;;;;;;16.60;55.58;100896.66;5028980;28;20040;-67
2023/03/18 09:42:17;;;;;;;28.88;27.00;;;;;;;16.62;55.42;100893.69;5017975;28;20117;-67
2023/03/18 09:44:44;;;;;;;28.98;27.05;;;;;;;16.63;55.50;100901.59;5015502;28;20034;-67
2023/03/18 09:48:06;;;;;;;28.88;26.75;;;;;;;16.62;55.76;100902.66;5019136;28;20466;-66
2023/03/18 09:50:37;;;;;;;28.13;26.40;;;;;;;16.63;55.89;100901.59;4916093;29;20044;-66
2023/03/18 09:53:55;;;;;;;31.13;28.80;;;;;;;16.62;55.64;100905.41;4914804;29;20036;-68
2023/03/18 09:56:27;;;;;;;28.15;26.38;;;;;;;16.66;55.78;100905.66;4960996;28;20049;-67
2023/03/18 09:59:02;;;;;;;30.00;27.88;;;;;;;16.69;55.80;100907.03;4972974;28;20034;-68
2023/03/18 10:01:29;;;;;;;26.95;25.27;;;;;;;16.72;55.57;100907.25;5013321;28;20076;-68
2023/03/18 10:04:17;;;;;;;31.02;29.02;;;;;;;16.73;55.59;100908.91;5031437;28;20029;-67
2023/03/18 10:06:44;;;;;;;30.30;28.02;;;;;;;16.76;56.05;100919.25;5032627;28;20025;-67
2023/03/18 10:09:21;;;;;;;29.90;27.67;;;;;;;16.78;55.69;100921.72;5031072;28;20369;-68
2023/03/18 10:11:50;;;;;;;29.60;27.10;;;;;;;16.81;55.97;100932.09;5024273;28;20030;-68
2023/03/18 10:14:46;;;;;;;29.52;26.65;;;;;;;16.81;55.89;100926.66;5013439;28;20030;-67
2023/03/18 10:17:18;;;;;;;28.90;26.98;;;;;;;16.82;55.62;100918.16;5021271;28;20096;-67
2023/03/18 10:19:52;;;;;;;29.48;27.48;;;;;;;16.84;55.92;100915.97;5024585;28;20042;-67
2023/03/18 10:22:32;;;;;;;29.38;27.52;;;;;;;16.86;56.13;100921.16;5013410;28;20045;-67
2023/03/18 10:25:22;;;;;;;30.17;28.27;;;;;;;16.89;55.84;100917.88;5012979;28;20448;-66
2023/03/18 10:28:11;;;;;;;29.13;27.17;;;;;;;16.90;55.91;100913.22;5018975;28;20029;-67
2023/03/18 10:31:00;;;;;;;28.23;26.17;;;;;;;16.93;55.77;100918.09;5018871;28;20030;-66
2023/03/18 10:33:46;;;;;;;29.63;27.50;;;;;;;16.95;56.07;100915.91;5012905;28;20034;-67
2023/03/18 10:36:19;;;;;;;28.58;26.95;;;;;;;16.97;55.76;100913.72;5012494;28;20412;-66
2023/03/18 10:38:50;;;;;;;28.25;26.52;;;;;;;17.01;55.67;100912.91;5005426;28;20033;-68
2023/03/18 10:41:32;;;;;;;29.70;27.90;;;;;;;17.04;55.66;100914.25;5015811;28;20038;-67
2023/03/18 10:44:14;;;;;;;28.85;27.02;;;;;;;17.06;56.14;100918.31;5012760;28;20037;-67
2023/03/18 10:46:42;;;;;;;27.33;25.42;;;;;;;17.09;56.19;100917.75;5013137;28;20032;-67
2023/03/18 10:49:17;;;;;;;27.70;26.00;;;;;;;17.12;55.65;100926.47;5012761;28;20473;-66
2023/03/18 10:51:53;;;;;;;30.23;28.10;;;;;;;17.14;55.90;100919.63;5028576;28;20039;-66
2023/03/18 10:54:30;;;;;;;28.08;26.25;;;;;;;17.15;55.81;100918.53;5012999;28;20034;-66
2023/03/18 10:56:55;;;;;;;30.20;28.33;;;;;;;17.18;56.05;100915.22;5012528;28;20040;-68
2023/03/18 10:59:23;;;;;;;30.60;28.42;;;;;;;17.20;55.50;100923.97;5020706;28;20037;-67
2023/03/18 11:02:21;;;;;;;27.57;25.90;;;;;;;17.20;56.21;100921.22;5029056;28;20076;-66
2023/03/18 11:05:03;;;;;;;27.13;25.40;;;;;;;17.23;55.99;100917.94;5016068;28;20394;-66
2023/03/18 11:07:30;;;;;;;31.35;28.75;;;;;;;17.25;55.59;100931.31;5016444;28;20479;-66
2023/03/18 11:10:11;;;;;;;31.40;28.73;;;;;;;17.26;55.94;100930.19;5022205;28;20022;-66
2023/03/18 11:12:36;;;;;;;29.60;27.70;;;;;;;17.30;55.93;100936.72;5012457;28;20319;-67
2023/03/18 11:15:09;;;;;;;30.45;28.58;;;;;;;17.32;55.94;100931.81;5012995;28;20481;-66